Time;durP1;ratioP1;P1;durP2;ratioP2;P2;SDS_P1;SDS_P2;PMS_P1;PMS_P2;Temp;Humidity;BMP_temperature;BMP_pressure;BME280_temperature;BME280_humidity;BME280_pressure;Samples;Min_cycle;Max_cycle;Signal;HPM_P1;HPM_P2
2022/05/05 00:00:17;;;;;;;2.90;2.03;;;24.60;64.90;;;;;;5063475;28;20475;-65
2022/05/05 00:02:49;;;;;;;2.60;2.07;;;24.70;65.70;;;;;;5065526;28;20487;-64
2022/05/05 00:05:20;;;;;;;2.40;1.87;;;24.70;67.00;;;;;;5065044;28;20506;-65
2022/05/05 00:07:52;;;;;;;3.70;2.80;;;24.60;65.10;;;;;;5064764;28;20467;-65
2022/05/05 00:15:58;;;;;;;2.23;1.90;;;25.00;63.50;;;;;;5064466;28;20477;-64
2022/05/05 00:18:31;;;;;;;2.50;2.30;;;24.60;64.40;;;;;;5064010;28;20483;-64
2022/05/05 00:21:02;;;;;;;3.20;2.07;;;24.60;62.00;;;;;;5060071;28;20588;-65
2022/05/05 00:23:33;;;;;;;4.03;1.90;;;24.80;65.20;;;;;;5062111;28;20515;-65
2022/05/05 00:26:04;;;;;;;4.07;2.40;;;24.90;64.00;;;;;;5064909;28;21044;-64
2022/05/05 00:28:34;;;;;;;3.77;2.23;;;24.80;64.70;;;;;;5063675;28;20431;-65
2022/05/05 00:31:05;;;;;;;2.60;2.27;;;24.70;67.20;;;;;;5064047;28;20471;-64
2022/05/05 00:33:38;;;;;;;1.90;1.80;;;24.50;66.10;;;;;;5063457;28;20496;-65
2022/05/05 00:36:12;;;;;;;2.13;1.87;;;24.30;66.60;;;;;;5044659;28;20465;-65
2022/05/05 00:38:43;;;;;;;2.70;1.90;;;24.10;68.40;;;;;;5047900;28;20467;-65
2022/05/05 00:41:13;;;;;;;2.60;2.10;;;24.20;67.80;;;;;;5061799;28;20615;-65
2022/05/05 00:43:44;;;;;;;2.53;1.87;;;24.20;65.80;;;;;;5059817;28;20468;-65
2022/05/05 00:46:15;;;;;;;2.47;2.27;;;23.90;68.10;;;;;;5063402;28;20440;-64
2022/05/05 00:48:48;;;;;;;4.60;2.90;;;23.90;69.20;;;;;;5062825;28;20463;-66
2022/05/05 00:51:19;;;;;;;6.60;2.90;;;23.90;69.70;;;;;;5062831;28;20466;-64
2022/05/05 00:53:50;;;;;;;3.67;3.13;;;23.80;72.70;;;;;;5061596;28;20500;-64
2022/05/05 00:56:22;;;;;;;3.50;2.60;;;23.80;73.80;;;;;;5063054;28;20464;-64
2022/05/05 00:58:54;;;;;;;3.53;3.20;;;23.80;72.20;;;;;;5062938;28;20536;-65
2022/05/05 01:01:33;;;;;;;4.20;2.93;;;23.70;72.30;;;;;;5062759;28;20527;-64
2022/05/05 01:04:07;;;;;;;4.80;2.97;;;23.50;75.60;;;;;;5064133;28;20509;-65
2022/05/05 01:06:39;;;;;;;3.97;3.00;;;23.50;74.80;;;;;;5063203;28;20464;-65
2022/05/05 01:09:09;;;;;;;2.93;2.70;;;23.40;75.10;;;;;;5061830;28;20464;-69
2022/05/05 01:11:40;;;;;;;3.23;2.80;;;23.30;75.30;;;;;;5061704;28;20545;-66
2022/05/05 01:14:11;;;;;;;2.70;2.50;;;23.30;77.70;;;;;;5061015;28;20844;-66
2022/05/05 01:16:43;;;;;;;3.63;2.70;;;23.20;77.30;;;;;;5064435;28;20516;-67
2022/05/05 01:19:15;;;;;;;4.70;2.73;;;23.20;78.40;;;;;;5062257;28;20460;-66
2022/05/05 01:21:54;;;;;;;4.57;3.17;;;23.20;77.70;;;;;;5062693;28;20487;-67
2022/05/05 01:29:57;;;;;;;3.70;3.10;;;23.10;78.00;;;;;;5063067;28;20455;-67
2022/05/05 01:32:33;;;;;;;5.00;3.23;;;23.00;79.60;;;;;;5059231;28;20487;-67
2022/05/05 01:35:04;;;;;;;3.43;3.20;;;23.00;79.30;;;;;;5058374;28;20487;-66
2022/05/05 01:37:36;;;;;;;4.30;3.50;;;23.00;79.50;;;;;;5059754;28;20476;-66
2022/05/05 01:40:09;;;;;;;3.73;3.10;;;22.90;79.70;;;;;;5061407;28;20499;-66
2022/05/05 01:42:40;;;;;;;4.83;2.93;;;22.70;81.20;;;;;;5060846;28;20531;-66
2022/05/05 01:45:14;;;;;;;3.20;2.70;;;22.50;80.60;;;;;;5062461;28;20560;-66
2022/05/05 01:47:45;;;;;;;5.60;3.03;;;22.40;80.50;;;;;;5059932;28;20476;-67
2022/05/05 01:50:16;;;;;;;5.70;2.90;;;22.40;81.90;;;;;;5060045;28;20455;-65
2022/05/05 01:52:49;;;;;;;2.90;2.70;;;22.40;84.10;;;;;;5062702;28;20467;-65
2022/05/05 01:55:20;;;;;;;5.90;3.40;;;22.30;81.70;;;;;;5061386;28;20488;-65
2022/05/05 01:57:51;;;;;;;5.70;3.20;;;22.30;82.10;;;;;;5061094;28;20472;-65
2022/05/05 02:00:22;;;;;;;5.40;2.60;;;22.20;83.90;;;;;;5062197;28;20459;-64
2022/05/05 02:02:53;;;;;;;4.00;3.00;;;22.20;82.20;;;;;;5061542;28;20480;-64
2022/05/05 02:05:24;;;;;;;5.53;4.80;;;22.20;81.20;;;;;;5061285;28;20452;-64
2022/05/05 02:07:57;;;;;;;4.70;3.50;;;22.10;81.50;;;;;;5061063;28;20460;-64
2022/05/05 02:10:28;;;;;;;4.07;3.40;;;22.00;81.30;;;;;;5060223;28;20808;-64
2022/05/05 02:12:58;;;;;;;3.37;2.90;;;22.00;80.90;;;;;;5048741;28;20468;-64
2022/05/05 02:15:29;;;;;;;3.87;2.77;;;22.00;81.10;;;;;;5056645;28;20492;-65
2022/05/05 02:18:09;;;;;;;3.93;3.53;;;21.90;81.30;;;;;;5059714;28;20486;-65
2022/05/05 02:20:41;;;;;;;13.60;12.30;;;21.80;83.10;;;;;;5061889;28;20456;-63
2022/05/05 02:23:15;;;;;;;2.70;2.60;;;21.70;84.50;;;;;;5060061;28;20475;-64
2022/05/05 02:25:46;;;;;;;4.20;3.10;;;21.60;82.30;;;;;;5061327;28;20473;-65
2022/05/05 02:28:17;;;;;;;6.07;4.27;;;21.50;83.90;;;;;;5061693;28;20816;-65
2022/05/05 02:30:49;;;;;;;3.63;3.10;;;21.50;84.00;;;;;;5061752;28;20523;-65
2022/05/05 02:33:20;;;;;;;4.93;3.30;;;21.50;81.10;;;;;;5059658;28;20551;-65
2022/05/05 02:38:42;;;;;;;7.53;5.93;;;21.50;81.40;;;;;;5062835;28;20541;-65
2022/05/05 02:38:46;;;;;;;5.83;3.50;;;21.50;82.10;;;;;;5060077;28;20459;-64
2022/05/05 02:41:17;;;;;;;4.70;2.80;;;21.40;82.70;;;;;;5060662;28;20486;-64
2022/05/05 02:43:48;;;;;;;4.07;3.67;;;21.40;83.30;;;;;;5060021;28;20468;-64
2022/05/05 02:46:19;;;;;;;3.83;2.77;;;21.30;84.00;;;;;;5060294;28;20533;-64
2022/05/05 02:48:49;;;;;;;5.73;3.60;;;21.20;85.20;;;;;;5060384;28;20457;-64
2022/05/05 02:51:20;;;;;;;5.40;2.50;;;21.20;84.40;;;;;;5052285;28;20916;-65
2022/05/05 02:56:41;;;;;;;4.23;2.90;;;21.00;85.30;;;;;;5061374;28;20464;-64
2022/05/05 02:59:12;;;;;;;3.33;2.67;;;20.90;85.70;;;;;;5059276;28;20458;-64
2022/05/05 03:01:43;;;;;;;4.80;2.83;;;20.90;84.90;;;;;;5061549;28;20449;-64
2022/05/05 03:04:14;;;;;;;6.73;2.60;;;20.80;85.00;;;;;;5060709;28;20488;-64
2022/05/05 03:06:45;;;;;;;4.00;2.60;;;20.60;85.70;;;;;;5060643;28;20524;-64
2022/05/05 03:09:18;;;;;;;2.17;1.97;;;20.50;88.50;;;;;;5060206;28;20510;-64
2022/05/05 03:11:50;;;;;;;2.40;1.80;;;20.40;89.60;;;;;;5060463;28;20913;-64
2022/05/05 03:14:21;;;;;;;3.03;2.20;;;20.40;88.10;;;;;;5060181;28;20458;-64
2022/05/05 03:16:51;;;;;;;1.77;1.67;;;20.30;89.60;;;;;;5060488;28;21032;-64
2022/05/05 03:19:22;;;;;;;3.70;2.03;;;20.20;89.70;;;;;;5059438;28;20492;-64
2022/05/05 03:21:53;;;;;;;4.03;2.57;;;20.10;90.80;;;;;;5061179;28;20439;-66
2022/05/05 03:24:26;;;;;;;4.33;2.57;;;20.10;91.50;;;;;;5059417;28;20439;-66
2022/05/05 03:27:00;;;;;;;2.60;2.40;;;20.00;91.40;;;;;;5058986;28;20453;-65
2022/05/05 03:29:32;;;;;;;2.73;2.23;;;19.90;92.20;;;;;;5060536;28;20900;-66
2022/05/05 03:32:03;;;;;;;3.83;2.30;;;19.80;92.20;;;;;;5052255;28;20555;-65
2022/05/05 03:34:34;;;;;;;3.73;2.60;;;19.80;95.00;;;;;;5060177;28;20492;-66
2022/05/05 03:37:05;;;;;;;2.60;2.40;;;19.70;94.10;;;;;;5059658;28;20867;-65
2022/05/05 03:39:38;;;;;;;3.60;2.90;;;19.70;95.10;;;;;;5056799;28;20462;-65
2022/05/05 03:42:09;;;;;;;5.83;3.17;;;19.70;94.20;;;;;;5048385;28;20427;-64
2022/05/05 03:44:40;;;;;;;5.23;3.10;;;19.70;94.10;;;;;;5057547;28;20940;-64
2022/05/05 03:47:11;;;;;;;3.20;2.77;;;19.80;92.90;;;;;;5060835;28;20435;-64
2022/05/05 03:49:42;;;;;;;3.20;2.90;;;19.70;93.00;;;;;;5060122;28;20468;-65
2022/05/05 03:52:13;;;;;;;3.50;2.50;;;19.50;93.30;;;;;;5063917;28;20452;-64
2022/05/05 03:54:46;;;;;;;4.50;2.53;;;19.40;93.50;;;;;;5060283;28;20494;-64
2022/05/05 03:57:16;;;;;;;4.57;3.07;;;19.30;94.00;;;;;;5064024;28;20819;-65
2022/05/05 03:59:47;;;;;;;4.00;2.70;;;19.30;94.10;;;;;;5054677;28;20479;-66
2022/05/05 04:02:18;;;;;;;2.60;2.40;;;19.20;93.80;;;;;;5061515;28;20537;-62
2022/05/05 04:04:49;;;;;;;3.23;2.33;;;19.10;94.10;;;;;;5063189;28;20533;-63
2022/05/05 04:07:20;;;;;;;5.03;2.50;;;19.00;94.60;;;;;;5063940;28;20484;-64
2022/05/05 04:09:53;;;;;;;4.10;2.80;;;18.90;95.60;;;;;;5062240;28;20464;-64
2022/05/05 04:12:25;;;;;;;3.60;2.93;;;18.80;95.80;;;;;;5062986;28;20439;-64
2022/05/05 04:14:56;;;;;;;4.83;2.70;;;18.80;95.90;;;;;;5062348;28;20474;-63
2022/05/05 04:17:26;;;;;;;3.37;2.50;;;18.70;95.80;;;;;;5063884;28;20464;-64
2022/05/05 04:19:57;;;;;;;3.27;2.97;;;18.60;96.10;;;;;;5061955;28;20475;-64
2022/05/05 04:22:31;;;;;;;4.00;2.70;;;18.60;96.60;;;;;;5061148;28;20565;-64
2022/05/05 04:25:04;;;;;;;4.83;2.80;;;18.60;97.10;;;;;;5062936;28;20437;-63
2022/05/05 04:27:35;;;;;;;3.03;2.70;;;18.50;97.60;;;;;;5064330;28;20465;-63
2022/05/05 04:30:07;;;;;;;4.50;2.63;;;18.40;98.50;;;;;;5057385;28;20453;-64
2022/05/05 04:32:38;;;;;;;4.70;2.80;;;18.30;98.40;;;;;;5048536;28;20499;-64
2022/05/05 04:35:10;;;;;;;5.77;2.73;;;18.20;98.90;;;;;;5062753;28;20969;-65
2022/05/05 04:37:41;;;;;;;7.20;2.77;;;18.20;98.40;;;;;;5062183;28;20422;-64
2022/05/05 04:40:14;;;;;;;4.73;3.10;;;18.20;97.20;;;;;;5064745;28;20559;-64
2022/05/05 04:42:45;;;;;;;5.07;2.80;;;18.10;96.80;;;;;;5063577;28;20444;-64
2022/05/05 04:45:15;;;;;;;5.60;2.60;;;18.00;97.40;;;;;;5062042;28;20443;-64
2022/05/05 04:47:46;;;;;;;3.80;2.83;;;17.90;97.00;;;;;;5063206;28;20471;-65
2022/05/05 04:50:17;;;;;;;5.00;2.70;;;17.80;96.40;;;;;;5063240;28;20539;-65
2022/05/05 04:52:48;;;;;;;3.20;2.13;;;17.70;96.90;;;;;;5065692;28;20427;-65
2022/05/05 04:55:21;;;;;;;3.83;2.60;;;17.50;97.20;;;;;;5062133;28;20491;-64
2022/05/05 04:57:52;;;;;;;3.07;2.17;;;17.40;96.70;;;;;;5055409;28;20435;-64
2022/05/05 05:00:23;;;;;;;5.50;2.83;;;17.30;96.80;;;;;;5061604;28;20442;-64
2022/05/05 05:02:53;;;;;;;4.70;3.10;;;17.20;96.90;;;;;;5064138;28;20468;-64
2022/05/05 05:05:26;;;;;;;7.47;3.50;;;17.10;96.70;;;;;;5063319;28;20448;-64
2022/05/05 05:07:56;;;;;;;4.13;2.43;;;17.10;96.50;;;;;;5048987;28;20440;-64
2022/05/05 05:10:29;;;;;;;3.10;2.43;;;17.00;96.00;;;;;;5062820;28;20532;-64
2022/05/05 05:13:00;;;;;;;3.63;2.47;;;16.90;96.10;;;;;;5062805;28;20835;-64
2022/05/05 05:15:31;;;;;;;3.53;2.43;;;16.80;95.30;;;;;;5062473;28;20507;-64
2022/05/05 05:18:02;;;;;;;3.40;2.50;;;16.70;95.30;;;;;;5061887;28;20563;-64
2022/05/05 05:20:33;;;;;;;4.23;2.43;;;16.60;95.40;;;;;;5061370;28;20443;-63
2022/05/05 05:23:04;;;;;;;2.70;2.20;;;16.50;95.60;;;;;;5062501;28;20466;-64
2022/05/05 05:25:39;;;;;;;4.60;2.70;;;16.50;95.40;;;;;;5064989;28;20523;-63
2022/05/05 05:28:13;;;;;;;3.30;2.63;;;16.30;95.70;;;;;;5063123;28;20448;-64
2022/05/05 05:30:44;;;;;;;6.93;2.77;;;16.10;96.90;;;;;;5063319;28;20457;-64
2022/05/05 05:33:15;;;;;;;5.97;2.93;;;16.10;97.40;;;;;;5060880;28;20448;-64
2022/05/05 05:35:47;;;;;;;5.67;2.70;;;16.00;96.90;;;;;;5062933;28;20488;-64
2022/05/05 05:38:20;;;;;;;6.50;2.83;;;16.00;98.30;;;;;;5062478;28;20452;-64
2022/05/05 05:40:54;;;;;;;5.53;2.50;;;15.90;97.60;;;;;;5061849;28;20765;-64
2022/05/05 05:43:25;;;;;;;4.00;2.23;;;15.90;97.10;;;;;;5058111;28;20466;-64
2022/05/05 05:45:56;;;;;;;5.10;2.40;;;16.00;96.50;;;;;;5060139;28;20460;-65
2022/05/05 05:48:27;;;;;;;5.87;2.87;;;15.90;96.50;;;;;;5061354;28;20470;-65
2022/05/05 05:50:58;;;;;;;3.50;2.20;;;15.90;96.90;;;;;;5062592;28;20470;-64
2022/05/05 05:53:29;;;;;;;3.60;2.80;;;15.80;97.10;;;;;;5060749;28;20563;-64
2022/05/05 05:56:02;;;;;;;4.23;2.50;;;15.70;97.30;;;;;;5061909;28;20488;-64
2022/05/05 05:58:33;;;;;;;4.00;2.60;;;15.70;97.00;;;;;;5061947;28;20460;-64
2022/05/05 06:01:03;;;;;;;3.37;2.40;;;15.60;97.20;;;;;;5061512;28;20491;-65
2022/05/05 06:06:22;;;;;;;2.70;2.20;;;15.50;96.30;;;;;;5053360;28;20575;-65
2022/05/05 06:08:53;;;;;;;4.67;2.77;;;15.40;97.00;;;;;;5061053;28;21049;-64
2022/05/05 06:11:25;;;;;;;4.03;2.47;;;15.30;98.00;;;;;;5060966;28;20468;-63
2022/05/05 06:13:57;;;;;;;3.47;2.33;;;15.20;97.80;;;;;;5062360;28;20459;-64
2022/05/05 06:16:28;;;;;;;4.20;2.20;;;15.10;98.30;;;;;;5059819;28;20614;-63
2022/05/05 06:18:59;;;;;;;3.60;2.40;;;15.10;98.70;;;;;;5061702;28;20502;-63
2022/05/05 06:21:30;;;;;;;4.00;1.90;;;15.00;98.30;;;;;;5062046;28;20460;-63
2022/05/05 06:24:01;;;;;;;5.77;2.73;;;15.00;96.90;;;;;;5059013;28;20459;-64
2022/05/05 06:26:33;;;;;;;6.47;2.77;;;15.00;98.50;;;;;;5062414;28;20459;-64
2022/05/05 06:29:04;;;;;;;3.13;2.10;;;15.00;98.20;;;;;;5061374;28;20468;-64
2022/05/05 06:31:35;;;;;;;3.37;2.30;;;15.00;99.10;;;;;;5059839;28;20842;-64
2022/05/05 06:34:06;;;;;;;2.67;2.00;;;15.00;96.90;;;;;;5060687;28;20461;-64
2022/05/05 06:36:37;;;;;;;3.87;1.90;;;15.00;96.90;;;;;;5061658;28;20496;-64
2022/05/05 06:39:08;;;;;;;3.27;2.63;;;15.00;97.60;;;;;;5061058;28;20465;-64
2022/05/05 06:41:41;;;;;;;3.53;2.50;;;15.10;96.20;;;;;;5061148;28;20464;-64
2022/05/05 06:44:14;;;;;;;3.40;2.33;;;15.00;96.30;;;;;;5060468;28;20475;-63
2022/05/05 06:46:45;;;;;;;3.23;1.90;;;15.00;97.90;;;;;;5061390;28;20453;-64
2022/05/05 06:49:17;;;;;;;3.67;2.30;;;15.00;97.10;;;;;;5059936;28;20462;-64
2022/05/05 06:51:49;;;;;;;5.30;2.57;;;14.90;97.70;;;;;;5061073;28;20826;-64
2022/05/05 06:54:20;;;;;;;5.03;2.10;;;14.90;98.30;;;;;;5059260;28;20479;-63
2022/05/05 06:56:53;;;;;;;4.70;2.10;;;14.90;99.20;;;;;;5060059;28;20514;-63
2022/05/05 06:59:24;;;;;;;2.97;2.30;;;14.80;98.80;;;;;;5060499;28;20448;-63
2022/05/05 07:01:57;;;;;;;3.53;3.20;;;14.80;99.90;;;;;;5059346;28;20490;-64
2022/05/05 07:07:22;;;;;;;5.03;2.23;;;14.80;99.00;;;;;;5049709;28;20449;-63
2022/05/05 07:12:42;;;;;;;5.13;2.27;;;14.70;96.40;;;;;;5061294;28;20460;-64
2022/05/05 07:15:13;;;;;;;4.03;2.27;;;14.60;96.70;;;;;;5059372;28;20492;-64
2022/05/05 07:17:44;;;;;;;3.37;2.13;;;14.70;95.30;;;;;;5060266;28;20514;-64
2022/05/05 07:20:15;;;;;;;3.77;2.50;;;14.70;94.40;;;;;;5060553;28;20456;-64
2022/05/05 07:22:46;;;;;;;4.13;2.23;;;14.50;95.40;;;;;;5049292;28;20456;-64
2022/05/05 07:25:17;;;;;;;2.80;2.10;;;14.50;95.40;;;;;;5062375;28;20859;-64
2022/05/05 07:27:49;;;;;;;3.90;2.07;;;14.50;95.20;;;;;;5062899;28;20780;-64
2022/05/05 07:30:20;;;;;;;3.00;2.10;;;14.50;94.70;;;;;;5063911;28;20464;-63
2022/05/05 07:32:51;;;;;;;5.53;2.30;;;14.40;95.40;;;;;;5064974;28;20518;-64
2022/05/05 07:35:22;;;;;;;2.73;1.83;;;14.40;94.60;;;;;;5064418;28;20539;-64
2022/05/05 07:37:53;;;;;;;2.70;2.33;;;14.30;95.10;;;;;;5065275;28;20492;-64
2022/05/05 07:40:23;;;;;;;5.27;2.03;;;14.20;95.60;;;;;;5063131;28;20444;-63
2022/05/05 07:42:56;;;;;;;4.67;2.57;;;14.20;94.10;;;;;;5064558;28;20464;-64
2022/05/05 07:45:27;;;;;;;4.20;2.30;;;14.10;94.50;;;;;;5064068;28;20460;-64
2022/05/05 07:48:00;;;;;;;5.80;2.60;;;14.00;95.60;;;;;;5060394;28;20532;-63
2022/05/05 07:50:31;;;;;;;2.47;2.00;;;13.90;97.00;;;;;;5057041;28;20494;-64
2022/05/05 07:53:02;;;;;;;5.80;2.20;;;14.00;97.60;;;;;;5063976;28;20493;-64
2022/05/05 07:55:33;;;;;;;2.53;1.80;;;13.90;99.30;;;;;;5064005;28;20458;-64
2022/05/05 07:58:06;;;;;;;4.87;2.00;;;13.90;97.40;;;;;;5063913;28;20495;-64
2022/05/05 08:00:36;;;;;;;4.50;1.80;;;13.90;97.10;;;;;;5064155;28;20781;-64
2022/05/05 08:03:08;;;;;;;5.17;2.63;;;13.80;97.00;;;;;;5063054;28;20499;-64
2022/05/05 08:05:39;;;;;;;3.10;1.90;;;13.90;98.90;;;;;;5064293;28;20463;-64
2022/05/05 08:08:10;;;;;;;2.53;1.90;;;13.80;96.80;;;;;;5061913;28;20456;-65
2022/05/05 08:10:41;;;;;;;2.30;2.00;;;13.90;96.70;;;;;;5063434;28;20456;-64
2022/05/05 08:13:13;;;;;;;2.47;1.63;;;13.80;97.50;;;;;;5063207;28;20463;-64
2022/05/05 08:15:44;;;;;;;6.67;2.23;;;13.80;97.30;;;;;;5063096;28;20491;-64
2022/05/05 08:18:15;;;;;;;3.40;2.67;;;13.80;97.20;;;;;;5062895;28;20499;-63
2022/05/05 08:20:46;;;;;;;7.10;1.80;;;13.80;96.20;;;;;;5063981;28;20527;-64
2022/05/05 08:23:17;;;;;;;5.60;2.13;;;13.90;95.90;;;;;;5057800;28;20471;-64
2022/05/05 08:28:39;;;;;;;7.10;3.10;;;13.90;94.90;;;;;;5062129;28;20478;-64
2022/05/05 08:31:10;;;;;;;5.53;2.90;;;13.90;95.90;;;;;;5057245;28;20460;-64
2022/05/05 08:33:41;;;;;;;2.60;2.10;;;13.80;97.80;;;;;;5063275;28;20468;-64
2022/05/05 08:36:12;;;;;;;5.27;2.10;;;13.80;97.00;;;;;;5063072;28;20468;-64
2022/05/05 08:38:45;;;;;;;2.60;2.30;;;13.80;97.10;;;;;;5062107;28;20492;-64
2022/05/05 08:41:16;;;;;;;5.00;2.57;;;13.80;97.00;;;;;;5062710;28;20460;-63
2022/05/05 08:43:48;;;;;;;2.43;2.23;;;13.70;97.10;;;;;;5063862;28;20567;-63
2022/05/05 08:46:35;;;;;;;5.17;2.20;;;13.80;97.80;;;;;;5061682;28;20535;-63
2022/05/05 08:49:08;;;;;;;2.90;1.70;;;13.80;96.10;;;;;;5062177;28;20499;-63
2022/05/05 08:51:43;;;;;;;7.27;1.90;;;13.70;97.50;;;;;;5062542;28;20470;-64
2022/05/05 08:54:16;;;;;;;5.03;2.40;;;13.70;97.80;;;;;;5062249;28;20460;-64
2022/05/05 08:56:48;;;;;;;3.67;2.20;;;13.70;99.70;;;;;;5063694;28;20567;-63
2022/05/05 08:59:22;;;;;;;2.40;2.20;;;13.70;99.00;;;;;;5060942;28;20457;-64
2022/05/05 09:01:53;;;;;;;2.90;1.63;;;13.70;99.90;;;;;;5063735;28;20514;-64
2022/05/05 09:04:27;;;;;;;3.40;2.10;;;13.70;99.00;;;;;;5062122;28;20467;-64
2022/05/05 09:06:57;;;;;;;3.00;2.70;;;13.60;99.60;;;;;;5062241;28;20467;-64
2022/05/05 09:09:30;;;;;;;5.37;2.40;;;13.60;99.90;;;;;;5061616;28;20459;-63
2022/05/05 09:12:15;;;;;;;9.13;2.70;;;13.70;99.90;;;;;;5063034;28;20452;-64
2022/05/05 09:14:49;;;;;;;2.50;1.97;;;13.70;99.90;;;;;;5060832;28;20598;-64
2022/05/05 09:17:22;;;;;;;2.60;2.27;;;13.70;99.90;;;;;;5062485;28;20530;-63
2022/05/05 09:19:55;;;;;;;2.70;2.10;;;13.60;99.90;;;;;;5054489;28;20452;-63
2022/05/05 09:22:29;;;;;;;3.37;2.33;;;13.60;99.90;;;;;;5052625;28;20464;-64
2022/05/05 09:25:02;;;;;;;6.83;2.60;;;13.50;99.90;;;;;;5056413;28;20474;-64
2022/05/05 09:27:35;;;;;;;4.10;2.30;;;13.50;99.90;;;;;;5051821;28;20463;-63
2022/05/05 09:30:10;;;;;;;3.70;2.50;;;13.40;99.20;;;;;;5061787;28;20466;-63
2022/05/05 09:32:41;;;;;;;4.10;2.20;;;13.40;99.90;;;;;;5062247;28;20468;-63
2022/05/05 09:35:15;;;;;;;3.60;2.30;;;13.40;99.90;;;;;;5061503;28;20468;-64
2022/05/05 09:37:47;;;;;;;2.70;2.40;;;13.40;99.90;;;;;;5057978;28;20496;-64
2022/05/05 09:40:20;;;;;;;4.13;2.13;;;13.30;99.30;;;;;;5058783;28;20472;-64
2022/05/05 09:42:51;;;;;;;2.90;2.10;;;13.30;98.30;;;;;;5060456;28;20448;-64
2022/05/05 09:45:27;;;;;;;3.30;2.43;;;13.20;98.30;;;;;;5062206;28;20463;-64
2022/05/05 09:47:59;;;;;;;2.67;2.47;;;13.30;98.30;;;;;;5061580;28;20474;-64
2022/05/05 09:50:31;;;;;;;3.70;2.00;;;13.40;96.50;;;;;;5061106;28;20464;-64
2022/05/05 09:58:40;;;;;;;4.33;2.20;;;13.30;95.20;;;;;;5060915;28;20502;-63
2022/05/05 10:01:21;;;;;;;3.67;1.97;;;13.20;94.60;;;;;;5060223;28;20989;-63
2022/05/05 10:04:00;;;;;;;4.30;1.97;;;13.20;94.60;;;;;;5060778;28;20574;-64
2022/05/05 10:06:32;;;;;;;2.90;1.70;;;13.20;94.30;;;;;;5062359;28;20500;-63
2022/05/05 10:09:04;;;;;;;2.57;1.60;;;13.10;94.60;;;;;;5058781;28;20863;-63
2022/05/05 10:11:36;;;;;;;3.00;2.17;;;13.10;94.60;;;;;;5060797;28;20555;-63
2022/05/05 10:14:08;;;;;;;3.60;1.77;;;13.10;95.00;;;;;;5061503;28;20491;-63
2022/05/05 10:16:42;;;;;;;1.90;1.80;;;13.00;97.20;;;;;;5061553;28;20480;-63
2022/05/05 10:19:15;;;;;;;3.43;1.87;;;12.90;96.00;;;;;;5060295;28;20549;-63
2022/05/05 10:21:56;;;;;;;2.57;1.50;;;13.00;95.70;;;;;;5061688;28;20482;-63
2022/05/05 10:24:28;;;;;;;3.00;2.10;;;12.90;95.80;;;;;;5060673;28;20514;-63
2022/05/05 10:27:00;;;;;;;6.40;2.20;;;13.00;98.10;;;;;;5057543;28;20464;-63
2022/05/05 10:29:38;;;;;;;3.83;2.00;;;13.00;99.20;;;;;;5058167;28;20483;-63
2022/05/05 10:32:16;;;;;;;1.67;1.57;;;13.00;96.20;;;;;;5055028;28;20460;-63
2022/05/05 10:34:47;;;;;;;3.03;1.63;;;13.00;96.40;;;;;;5060120;28;20463;-63
2022/05/05 10:37:22;;;;;;;2.23;1.50;;;13.00;96.60;;;;;;5061118;28;20448;-64
2022/05/05 10:40:03;;;;;;;4.97;2.00;;;13.00;96.70;;;;;;5059465;28;20495;-63
2022/05/05 10:42:40;;;;;;;1.93;1.70;;;12.90;96.60;;;;;;5061148;28;20468;-63
2022/05/05 10:45:13;;;;;;;3.50;2.00;;;12.90;99.30;;;;;;5060034;28;20479;-63
2022/05/05 10:48:38;;;;;;;3.23;2.00;;;12.90;96.70;;;;;;5061336;28;20509;-63
2022/05/05 10:51:10;;;;;;;2.70;1.87;;;13.00;97.00;;;;;;5057689;28;20531;-63
2022/05/05 10:53:42;;;;;;;6.20;2.17;;;13.00;97.90;;;;;;5060456;28;20471;-63
2022/05/05 10:56:30;;;;;;;4.20;1.80;;;12.90;99.90;;;;;;5061094;28;20479;-63
2022/05/05 10:59:06;;;;;;;2.33;1.70;;;12.80;99.90;;;;;;5057299;28;20506;-63
2022/05/05 11:02:00;;;;;;;5.30;2.20;;;12.80;99.90;;;;;;5061019;28;21321;-63
2022/05/05 11:04:33;;;;;;;3.73;2.30;;;12.80;98.30;;;;;;5060080;28;20581;-63
2022/05/05 11:07:31;;;;;;;3.87;2.30;;;12.80;99.90;;;;;;5060258;28;20460;-63
2022/05/05 11:10:02;;;;;;;3.00;2.17;;;12.80;99.90;;;;;;5059156;28;20464;-63
2022/05/05 11:12:39;;;;;;;2.67;2.10;;;12.70;97.20;;;;;;5059711;28;20476;-64
2022/05/05 11:23:52;;;;;;;2.80;2.27;;;12.70;99.90;;;;;;5058932;28;20460;-64
2022/05/05 11:26:23;;;;;;;8.07;2.50;;;12.60;99.90;;;;;;5055378;28;20463;-64
2022/05/05 11:28:55;;;;;;;3.10;2.10;;;12.60;99.90;;;;;;5061066;28;20472;-63
2022/05/05 11:31:28;;;;;;;6.70;2.10;;;12.60;99.90;;;;;;5060658;28;20467;-63
2022/05/05 11:34:00;;;;;;;3.63;2.37;;;12.60;99.90;;;;;;5060214;28;20475;-63
2022/05/05 11:36:33;;;;;;;3.90;2.27;;;12.60;99.90;;;;;;5058112;28;20585;-64
2022/05/05 11:39:06;;;;;;;2.87;2.57;;;12.60;99.90;;;;;;5059749;28;20491;-64
2022/05/05 11:41:37;;;;;;;5.27;1.60;;;12.60;99.90;;;;;;5057747;28;20464;-64
2022/05/05 11:44:17;;;;;;;3.70;2.17;;;12.60;99.90;;;;;;5060315;28;20455;-64
2022/05/05 11:46:49;;;;;;;3.60;2.23;;;12.50;99.90;;;;;;5060433;28;20515;-63
2022/05/05 11:49:19;;;;;;;3.33;2.27;;;12.50;99.90;;;;;;5060148;28;20471;-63
2022/05/05 11:51:51;;;;;;;3.20;2.27;;;12.50;99.90;;;;;;5060021;28;20498;-63
2022/05/05 11:54:29;;;;;;;4.73;2.90;;;12.50;99.90;;;;;;5059362;28;20469;-63
2022/05/05 11:57:00;;;;;;;6.23;2.13;;;12.50;99.90;;;;;;5060530;28;20456;-63
2022/05/05 12:02:20;;;;;;;2.50;2.30;;;12.50;99.90;;;;;;5059413;28;20467;-63
2022/05/05 12:04:53;;;;;;;6.90;2.63;;;12.60;99.90;;;;;;5060062;28;20470;-63
2022/05/05 12:07:26;;;;;;;3.07;2.50;;;12.70;99.90;;;;;;5060495;28;20464;-63
2022/05/05 12:10:02;;;;;;;4.03;2.53;;;12.70;99.90;;;;;;5058571;28;20460;-63
2022/05/05 12:12:33;;;;;;;3.23;2.20;;;12.70;99.90;;;;;;5063280;28;20461;-63
2022/05/05 12:15:06;;;;;;;3.40;2.90;;;12.60;99.90;;;;;;5076569;28;20555;-63
2022/05/05 12:17:41;;;;;;;3.50;2.10;;;12.50;99.90;;;;;;5065098;28;20440;-63
2022/05/05 12:20:14;;;;;;;2.83;1.93;;;12.40;99.90;;;;;;5063712;28;20478;-63
2022/05/05 12:22:46;;;;;;;3.40;2.40;;;12.30;99.90;;;;;;5064388;28;20574;-63
2022/05/05 12:25:20;;;;;;;3.93;2.10;;;12.20;99.90;;;;;;5063924;28;20987;-63
2022/05/05 12:28:08;;;;;;;2.70;1.80;;;12.00;99.90;;;;;;5064681;28;20452;-63
2022/05/05 12:30:40;;;;;;;3.60;2.00;;;11.90;99.90;;;;;;5057972;28;20464;-64
2022/05/05 12:33:13;;;;;;;3.07;2.23;;;11.80;99.90;;;;;;5062479;28;20461;-63
2022/05/05 12:35:45;;;;;;;2.07;1.97;;;11.70;99.90;;;;;;5064147;28;20456;-63
2022/05/05 12:38:17;;;;;;;3.33;2.60;;;11.60;99.90;;;;;;5062137;28;20467;-64
2022/05/05 12:41:07;;;;;;;3.33;2.10;;;11.60;99.90;;;;;;5056986;28;20511;-64
2022/05/05 12:43:41;;;;;;;3.93;2.63;;;11.30;99.90;;;;;;5063204;28;20464;-64
2022/05/05 12:46:12;;;;;;;2.73;2.47;;;11.10;99.90;;;;;;5062807;28;20470;-64
2022/05/05 12:48:43;;;;;;;2.77;2.10;;;11.10;99.90;;;;;;5062769;28;20456;-64
2022/05/05 12:51:19;;;;;;;4.17;2.80;;;11.00;99.90;;;;;;5062689;28;20449;-65
2022/05/05 12:59:46;;;;;;;7.10;2.60;;;10.60;99.90;;;;;;5061216;28;20484;-63
2022/05/05 13:02:17;;;;;;;6.27;2.60;;;10.60;99.90;;;;;;5059686;28;20468;-63
2022/05/05 13:04:48;;;;;;;4.03;2.27;;;10.50;99.90;;;;;;5062386;28;20990;-63
2022/05/05 13:07:19;;;;;;;3.20;2.37;;;10.50;99.90;;;;;;5060933;28;20548;-64
2022/05/05 13:09:51;;;;;;;8.53;3.20;;;10.50;99.90;;;;;;5061253;28;20535;-64
2022/05/05 13:12:24;;;;;;;5.87;2.67;;;10.40;99.90;;;;;;5062996;28;20464;-64
2022/05/05 13:14:56;;;;;;;3.40;2.40;;;10.30;99.90;;;;;;5061439;28;20463;-64
2022/05/05 13:17:26;;;;;;;3.63;2.50;;;10.30;99.90;;;;;;5063011;28;20566;-63
2022/05/05 13:19:57;;;;;;;3.97;2.80;;;10.20;99.90;;;;;;5059707;28;20506;-63
2022/05/05 13:22:29;;;;;;;6.53;2.60;;;10.30;99.90;;;;;;5059984;28;20533;-64
2022/05/05 13:25:00;;;;;;;3.23;2.47;;;10.20;99.90;;;;;;5061869;28;20448;-63
2022/05/05 13:27:32;;;;;;;3.80;2.50;;;10.20;99.90;;;;;;5063188;28;20452;-63
2022/05/05 13:30:03;;;;;;;4.20;2.63;;;10.30;99.90;;;;;;5063263;28;20452;-63
2022/05/05 13:32:34;;;;;;;4.00;2.97;;;10.20;99.90;;;;;;5063277;28;20448;-63
2022/05/05 13:35:06;;;;;;;4.27;3.20;;;10.20;99.90;;;;;;5061971;28;20535;-63
2022/05/05 13:37:37;;;;;;;4.93;2.57;;;10.20;99.90;;;;;;5063523;28;20456;-63
2022/05/05 13:40:09;;;;;;;3.83;2.53;;;10.10;99.90;;;;;;5061621;28;20488;-64
2022/05/05 13:42:41;;;;;;;3.67;3.00;;;10.10;99.90;;;;;;5062098;28;20515;-64
2022/05/05 13:45:12;;;;;;;4.73;2.77;;;10.20;99.90;;;;;;5061861;28;20924;-63
2022/05/05 13:47:43;;;;;;;4.53;3.00;;;10.30;99.90;;;;;;5062577;28;20468;-63
2022/05/05 13:50:14;;;;;;;4.30;2.30;;;10.30;99.90;;;;;;5062099;28;20459;-64
2022/05/05 13:52:45;;;;;;;3.73;3.43;;;10.30;99.90;;;;;;5060475;28;20484;-63
2022/05/05 13:55:16;;;;;;;3.63;2.50;;;10.30;99.90;;;;;;5061653;28;20467;-64
2022/05/05 13:57:49;;;;;;;4.17;2.83;;;10.20;99.90;;;;;;5062368;28;20464;-62
2022/05/05 14:00:20;;;;;;;4.43;3.10;;;10.30;99.90;;;;;;5060716;28;20500;-62
2022/05/05 14:02:51;;;;;;;4.97;3.50;;;10.30;99.90;;;;;;5062392;28;20523;-62